Latest Weather Observations for The Monument

IDQ60801

Issued at 1:05 pm EST Wednesday 22 October 2014 (issued every 30 minutes, with the page automatically refreshed every 10 minutes)

About weather observations | Map of weather stations | Latest weather observations for QLD | Other Formats
Station Details ID: 037034 Name: THE MONUMENT AIRPORT Lat: -21.81 Lon: 139.93 Height: 288.4 m
Data from the previous 72 hours. | See also: Recent months at The Monument
Date/Time
EST
Temp
°C
App
Temp
°C
Dew
Point
Rel
Hum
%
Delta-T
°C
Wind Press
QNH
hPa
Press
MSL
hPa
Rain
since 9 am
mm
Dir
 
Spd
km/h
Gust
km/h
Spd
kts
Gust
kts
22/01:00pm 32.6 28.8 7.4 21 14.0 NNE 17 32 9 17 1018.5 1016.8 0.0
22/12:30pm 32.6 29.1 8.8 23 13.5 NNE 17 20 9 11 1018.8 1017.1 0.0
22/12:00pm 32.8 27.9 8.3 22 13.8 E 24 39 13 21 1019.3 1017.7 0.0
22/11:30am 31.5 27.4 8.5 24 12.9 NE 20 33 11 18 1019.9 1018.3 0.0
22/11:00am 31.1 26.3 8.8 25 12.6 NE 24 33 13 18 1020.2 1018.6 0.0
22/10:30am 30.0 24.6 7.8 25 12.3 NE 26 39 14 21 1020.6 1018.9 0.0
22/10:00am 29.6 23.7 7.5 25 12.1 NNE 28 35 15 19 1020.7 1019.0 0.0
22/09:30am 29.4 23.5 7.3 25 12.1 NNE 28 43 15 23 1020.6 1018.9 0.0
22/09:00am 28.9 23.2 6.9 25 11.9 NE 26 39 14 21 1020.5 1018.8 0.0
22/08:30am 28.0 22.4 7.3 27 11.2 NE 26 35 14 19 1020.1 1018.5 0.0
22/08:00am 26.7 21.2 7.7 30 10.3 NE 26 35 14 19 1019.8 1018.2 0.0
22/07:30am 25.9 21.5 7.5 31 9.9 ENE 20 28 11 15 1019.4 1017.8 0.0
22/07:00am 23.4 20.4 6.2 33 8.9 ENE 11 13 6 7 1019.2 1017.6 0.0
22/06:59am 23.3 20.3 6.1 33 8.9 ENE 11 13 6 7 1019.1 1017.5 0.0
22/06:30am 18.3 14.5 1.8 33 7.6 NNE 11 11 6 6 1018.7 1017.0 0.0
22/06:00am 18.1 14.7 2.0 34 7.4 NE 9 11 5 6 1018.5 1016.8 0.0
22/05:30am 17.8 14.6 0.5 31 7.7 NE 7 9 4 5 1018.2 1016.5 0.0
22/05:00am 18.5 15.0 1.5 32 7.7 NE 9 11 5 6 1017.9 1016.2 0.0
22/04:30am 18.9 15.5 1.9 32 7.9 ENE 9 11 5 6 1017.7 1016.0 0.0
22/04:00am 19.1 15.6 1.1 30 8.2 NE 9 9 5 5 1017.5 1015.8 0.0
22/03:30am 19.4 17.7 1.9 31 8.1 CALM 0 0 0 0 1017.6 1015.9 0.0
22/03:00am 20.4 17.3 1.3 28 8.8 ENE 7 9 4 5 1017.5 1015.8 0.0
22/02:30am 21.7 17.8 1.4 26 9.5 ENE 11 13 6 7 1017.4 1015.7 0.0
22/02:00am 22.5 18.8 2.1 26 9.7 ENE 11 15 6 8 1017.6 1015.9 0.0
22/01:30am 22.7 18.9 1.7 25 9.9 ENE 11 13 6 7 1018.0 1016.3 0.0
22/01:00am 23.0 19.1 1.4 24 10.2 ENE 11 15 6 8 1018.2 1016.5 0.0
22/12:30am 23.5 19.6 1.2 23 10.5 E 11 13 6 7 1018.7 1017.0 0.0
22/12:00am 22.9 18.9 0.7 23 10.3 E 11 13 6 7 1018.9 1017.3 0.0
 
Date/Time
EST
Temp
°C
App
Temp
°C
Dew
Point
Rel
Hum
%
Delta-T
°C
Wind Press
QNH
hPa
Press
MSL
hPa
Rain
since 9 am
mm
Dir
 
Spd
km/h
Gust
km/h
Spd
kts
Gust
kts
21/11:30pm 22.8 19.0 -0.6 21 10.6 E 9 11 5 6 1019.1 1017.5 0.0
21/11:00pm 23.5 20.1 -0.7 20 11.0 E 7 9 4 5 1019.2 1017.6 0.0
21/10:30pm 23.6 20.1 -1.3 19 11.2 ENE 7 9 4 5 1019.2 1017.6 0.0
21/10:00pm 24.8 20.6 -1.1 18 11.8 ENE 11 11 6 6 1019.1 1017.5 0.0
21/09:30pm 25.7 21.5 -1.2 17 12.3 ENE 11 13 6 7 1018.7 1017.0 0.0
21/09:00pm 26.6 22.2 -2.1 15 13.0 ENE 11 13 6 7 1018.3 1016.6 0.0
21/08:30pm 27.7 23.3 -2.2 14 13.7 ENE 11 15 6 8 1018.1 1016.4 0.0
21/08:00pm 28.4 23.6 -2.6 13 14.1 E 13 17 7 9 1017.8 1016.1 0.0
21/07:30pm 29.1 24.7 -2.1 13 14.5 E 11 15 6 8 1017.4 1015.7 0.0
21/07:00pm 30.7 26.1 -0.8 13 15.1 E 13 15 7 8 1016.9 1015.2 0.0
21/06:30pm 32.4 27.6 0.5 13 15.8 E 15 20 8 11 1016.6 1015.0 0.0
21/06:00pm 33.4 28.0 1.3 13 16.2 E 19 35 10 19 1016.3 1014.7 0.0
21/05:30pm 33.7 28.7 1.5 13 16.4 E 17 19 9 10 1016.1 1014.5 0.0
21/05:00pm 34.0 28.7 1.7 13 16.5 E 19 30 10 16 1015.9 1014.3 0.0
21/04:30pm 34.6 30.5 2.2 13 16.7 ENE 13 20 7 11 1015.9 1014.3 0.0
21/04:00pm 34.0 29.2 2.8 14 16.2 ENE 17 30 9 16 1016.0 1014.4 0.0
21/03:30pm 34.9 29.5 2.4 13 16.9 ENE 20 26 11 14 1016.1 1014.5 0.0
21/03:00pm 34.9 28.9 3.5 14 16.6 ESE 24 46 13 25 1016.2 1014.6 0.0
21/02:30pm 34.8 30.1 3.4 14 16.6 ESE 17 26 9 14 1016.8 1015.1 0.0
21/02:00pm 34.2 28.5 2.9 14 16.3 ENE 22 39 12 21 1017.2 1015.5 0.0
21/01:30pm 34.0 28.9 2.8 14 16.2 ENE 19 35 10 19 1017.9 1016.2 0.0
21/01:10pm 33.7 26.8 2.5 14 16.1 ENE 28 41 15 22 1018.2 1016.5 0.0
21/01:00pm 33.1 29.3 2.0 14 15.9 E 11 20 6 11 1018.3 1016.6 0.0
21/12:30pm 33.5 27.7 2.4 14 16.0 E 22 43 12 23 1018.9 1017.3 0.0
21/12:00pm 34.0 28.7 2.8 14 16.2 ENE 20 37 11 20 1019.4 1017.8 0.0
21/11:30am 32.7 26.6 2.7 15 15.5 NE 24 44 13 24 1019.9 1018.3 0.0
21/11:00am 33.0 27.1 3.9 16 15.3 ENE 24 37 13 20 1020.4 1018.7 0.0
21/10:30am 32.1 25.8 4.0 17 14.7 ENE 26 48 14 26 1020.7 1019.0 0.0
21/10:00am 31.4 25.8 3.4 17 14.4 NE 22 37 12 20 1020.9 1019.2 0.0
21/09:30am 31.0 25.9 3.1 17 14.3 NE 19 32 10 17 1020.9 1019.2 0.0
21/09:00am 30.1 24.2 4.0 19 13.5 NE 24 35 13 19 1020.9 1019.2 0.0
21/08:30am 28.2 22.3 3.8 21 12.5 NE 24 35 13 19 1020.9 1019.2 0.0
21/08:00am 26.8 21.9 4.0 23 11.6 NE 19 24 10 13 1020.9 1019.2 0.0
21/07:30am 24.5 23.0 3.2 25 10.5 CALM 0 0 0 0 1020.5 1018.8 0.0
21/07:00am 21.6 20.0 2.3 28 9.1 CALM 0 0 0 0 1020.0 1018.4 0.0
21/06:30am 17.0 14.9 -0.7 30 7.6 CALM 0 0 0 0 1019.4 1017.8 0.0
21/06:00am 16.6 14.5 -0.6 31 7.4 CALM 0 0 0 0 1019.2 1017.6 0.0
21/05:30am 17.8 15.7 -0.9 28 8.1 CALM 0 0 0 0 1018.7 1017.0 0.0
21/05:00am 19.3 17.4 0.4 28 8.5 CALM 0 0 0 0 1018.3 1016.6 0.0
21/04:30am 18.8 16.7 -1.1 26 8.6 CALM 0 0 0 0 1017.8 1016.1 0.0
21/04:00am 18.4 16.7 1.9 33 7.6 CALM 0 0 0 0 1017.6 1015.9 0.0
21/03:30am 18.6 16.5 -0.7 27 8.4 CALM 0 0 0 0 1017.5 1015.8 0.0
21/03:00am 19.0 17.0 -0.4 27 8.5 CALM 0 0 0 0 1017.5 1015.8 0.0
21/02:30am 19.6 17.7 0.6 28 8.6 CALM 0 6 0 3 1017.6 1015.9 0.0
21/02:00am 19.1 17.1 0.2 28 8.4 CALM 0 0 0 0 1017.7 1016.0 0.0
21/01:30am 20.5 18.7 1.4 28 8.8 CALM 0 0 0 0 1017.9 1016.2 0.0
21/01:00am 21.2 19.4 1.5 27 9.2 CALM 0 0 0 0 1018.1 1016.4 0.0
21/12:30am 22.7 19.6 1.1 24 10.1 E 7 9 4 5 1018.3 1016.6 0.0
21/12:00am 23.3 20.0 0.4 22 10.6 ENE 7 9 4 5 1018.6 1016.9 0.0
 
Date/Time
EST
Temp
°C
App
Temp
°C
Dew
Point
Rel
Hum
%
Delta-T
°C
Wind Press
QNH
hPa
Press
MSL
hPa
Rain
since 9 am
mm
Dir
 
Spd
km/h
Gust
km/h
Spd
kts
Gust
kts
20/11:30pm 24.7 20.8 0.9 21 11.3 E 11 15 6 8 1018.8 1017.1 0.0
20/11:00pm 26.1 21.9 1.4 20 11.9 E 13 19 7 10 1018.6 1016.9 0.0
20/10:30pm 25.7 21.8 1.1 20 11.8 E 11 17 6 9 1018.7 1017.0 0.0
20/10:00pm 27.3 22.7 1.7 19 12.5 ESE 15 19 8 10 1018.6 1016.9 0.0
20/09:30pm 28.0 23.1 2.2 19 12.8 E 17 20 9 11 1018.4 1016.7 0.0
20/09:00pm 28.0 23.9 2.2 19 12.8 E 13 17 7 9 1018.1 1016.4 0.0
20/08:30pm 28.7 24.6 2.1 18 13.2 E 13 17 7 9 1017.7 1016.0 0.0
20/08:00pm 28.8 25.2 2.9 19 13.1 E 11 15 6 8 1017.4 1015.7 0.0
20/07:30pm 29.7 26.1 2.9 18 13.6 E 11 17 6 9 1017.2 1015.5 0.0
20/07:00pm 30.9 26.9 3.0 17 14.3 E 13 17 7 9 1016.9 1015.2 0.0
20/06:30pm 32.2 27.5 3.2 16 15.0 E 17 22 9 12 1016.5 1014.9 0.0
20/06:00pm 33.0 27.9 2.9 15 15.6 E 19 28 10 15 1016.1 1014.5 0.0
20/05:30pm 33.7 28.9 2.5 14 16.1 ESE 17 26 9 14 1015.9 1014.3 0.0
20/05:00pm 33.8 29.6 3.6 15 15.9 ESE 15 28 8 15 1015.7 1014.0 0.0
20/04:30pm 34.1 29.7 4.7 16 15.8 E 17 32 9 17 1015.7 1014.0 0.0
20/04:00pm 33.7 29.1 3.5 15 15.8 NE 17 28 9 15 1015.8 1014.2 0.0
20/03:30pm 35.2 31.0 3.7 14 16.7 E 15 20 8 11 1016.1 1014.5 0.0
20/03:00pm 35.3 30.9 4.8 15 16.5 E 17 26 9 14 1016.3 1014.7 0.0
20/02:30pm 33.9 29.5 4.6 16 15.7 ENE 17 28 9 15 1016.8 1015.1 0.0
20/02:00pm 33.8 29.7 6.2 18 15.1 E 17 32 9 17 1017.1 1015.4 0.0
20/01:30pm 32.9 28.1 5.5 18 14.8 E 20 30 11 16 1017.7 1016.0 0.0
20/01:00pm 32.8 28.3 6.2 19 14.5 ENE 19 26 10 14 1018.4 1016.7 0.0
20/12:30pm 32.4 27.8 6.6 20 14.1 NNE 20 32 11 17 1019.0 1017.4 0.0
20/12:00pm 31.9 27.6 6.9 21 13.7 NE 19 30 10 16 1019.7 1018.1 0.0
20/11:30am 31.2 26.2 6.3 21 13.5 E 22 30 12 16 1020.1 1018.5 0.0
20/11:00am 30.8 26.2 6.6 22 13.1 ENE 20 30 11 16 1020.6 1018.9 0.0
20/10:30am 30.7 25.4 6.6 22 13.1 NE 24 33 13 18 1020.9 1019.2 0.0
20/10:00am 30.4 25.1 7.0 23 12.7 NE 24 35 13 19 1021.3 1019.6 0.0
20/09:30am 30.1 24.0 6.7 23 12.7 ENE 28 37 15 20 1021.5 1019.8 0.0
20/09:00am 28.9 23.4 7.5 26 11.7 ENE 26 44 14 24 1021.5 1019.8 0.0
20/08:30am 27.6 21.2 6.9 27 11.1 ENE 30 39 16 21 1021.4 1019.7 0.0
20/08:00am 26.4 20.9 7.4 30 10.2 NE 26 37 14 20 1021.2 1019.5 0.0
20/07:30am 25.3 21.0 7.0 31 9.7 ENE 19 26 10 14 1020.8 1019.1 0.0
20/07:00am 22.9 19.4 5.3 32 8.9 ENE 13 19 7 10 1020.5 1018.8 0.0
20/06:30am 20.3 16.7 5.1 37 7.6 NE 13 13 7 7 1019.9 1018.3 0.0
20/06:00am 19.7 16.1 5.0 38 7.2 NE 13 15 7 8 1019.6 1018.0 0.0
20/05:30am 19.6 16.4 4.9 38 7.2 NE 11 13 6 7 1019.1 1017.5 0.0
20/05:00am 20.1 16.5 5.0 37 7.5 NE 13 13 7 7 1018.8 1017.1 0.0
20/04:30am 20.1 16.8 4.6 36 7.6 ENE 11 13 6 7 1018.5 1016.8 0.0
20/04:00am 20.4 16.7 4.4 35 7.8 NE 13 13 7 7 1018.4 1016.7 0.0
20/03:30am 20.7 17.4 4.3 34 8.0 ENE 11 13 6 7 1018.2 1016.5 0.0
20/03:00am 21.5 18.1 4.1 32 8.5 ENE 11 13 6 7 1018.3 1016.6 0.0
20/02:30am 22.0 18.2 4.1 31 8.8 ENE 13 15 7 8 1018.3 1016.6 0.0
20/02:00am 22.3 18.4 3.4 29 9.2 ENE 13 17 7 9 1018.4 1016.7 0.0
20/01:30am 23.1 19.2 3.6 28 9.6 NE 13 17 7 9 1018.7 1017.0 0.0
20/01:00am 24.0 19.3 3.3 26 10.2 E 17 20 9 11 1018.8 1017.1 0.0
20/12:30am 24.3 19.5 2.5 24 10.6 E 17 20 9 11 1018.9 1017.3 0.0
20/12:00am 25.1 19.9 2.5 23 11.0 ENE 19 24 10 13 1019.2 1017.6 0.0
 
Date/Time
EST
Temp
°C
App
Temp
°C
Dew
Point
Rel
Hum
%
Delta-T
°C
Wind Press
QNH
hPa
Press
MSL
hPa
Rain
since 9 am
mm
Dir
 
Spd
km/h
Gust
km/h
Spd
kts
Gust
kts
19/11:30pm 25.5 20.6 2.2 22 11.4 E 17 24 9 13 1019.4 1017.8 0.0
19/11:00pm 26.0 21.1 2.0 21 11.7 E 17 20 9 11 1019.4 1017.8 0.0
19/10:30pm 27.2 21.8 2.3 20 12.3 E 20 28 11 15 1019.4 1017.8 0.0
19/10:00pm 27.8 22.3 2.1 19 12.7 E 20 30 11 16 1019.4 1017.8 0.0
19/09:30pm 28.0 23.1 2.2 19 12.8 E 17 24 9 13 1019.0 1017.4 0.0
19/09:00pm 27.8 23.3 2.1 19 12.7 ESE 15 20 8 11 1018.6 1016.9 0.0
19/08:30pm 27.0 23.0 0.7 18 12.6 ESE 11 13 6 7 1018.3 1016.6 0.0
19/08:00pm 27.5 24.0 1.1 18 12.8 ESE 9 11 5 6 1017.9 1016.2 0.0
19/07:30pm 28.9 25.4 1.4 17 13.5 ESE 9 11 5 6 1017.6 1015.9 0.0
19/07:00pm 30.3 26.5 1.7 16 14.3 ESE 11 13 6 7 1017.3 1015.6 0.0
19/06:30pm 31.9 26.9 1.1 14 15.4 ESE 17 24 9 13 1016.8 1015.1 0.0
19/06:00pm 33.0 28.5 2.0 14 15.8 ESE 15 22 8 12 1016.5 1014.9 0.0
19/05:30pm 33.6 28.2 1.4 13 16.3 E 19 28 10 15 1016.1 1014.5 0.0
19/05:00pm 33.7 28.3 2.5 14 16.1 ENE 20 28 11 15 1015.8 1014.2 0.0
19/04:30pm 34.3 29.2 3.0 14 16.4 E 19 32 10 17 1015.8 1014.2 0.0
19/04:00pm 34.4 30.1 3.1 14 16.4 E 15 20 8 11 1015.8 1014.2 0.0
19/03:30pm 34.0 29.2 2.8 14 16.2 E 17 32 9 17 1015.9 1014.3 0.0
19/03:00pm 34.9 30.6 3.5 14 16.6 ESE 15 20 8 11 1016.2 1014.6 0.0
19/02:30pm 33.2 27.9 2.1 14 15.9 E 19 28 10 15 1016.6 1015.0 0.0
19/02:00pm 34.6 29.5 3.2 14 16.5 ENE 19 30 10 16 1017.2 1015.5 0.0
19/01:30pm 33.2 27.9 2.1 14 15.9 E 19 26 10 14 1017.5 1015.8 0.0

Other Formats:

Comma delimited format used in spreadsheet applications
http://www.bom.gov.au/fwo/IDQ60801/IDQ60801.94336.axf

JavaScript Object Notation format (JSON) in row-major order
http://www.bom.gov.au/fwo/IDQ60801/IDQ60801.94336.json